Time;durP1;ratioP1;P1;durP2;ratioP2;P2;SDS_P1;SDS_P2;PMS_P1;PMS_P2;Temp;Humidity;BMP_temperature;BMP_pressure;BME280_temperature;BME280_humidity;BME280_pressure;Samples;Min_cycle;Max_cycle;Signal;HPM_P1;HPM_P2
2021/01/05 00:01:28;;;;;;;3.65;2.92;;;3.40;99.90;;;;;;4845630;29;20030;-78
2021/01/05 00:03:54;;;;;;;4.63;3.30;;;3.40;99.90;;;;;;4848764;29;20045;-77
2021/01/05 00:06:20;;;;;;;5.53;3.53;;;3.40;99.90;;;;;;4847562;29;20057;-77
2021/01/05 00:08:47;;;;;;;4.18;3.17;;;3.50;99.90;;;;;;4830526;29;20483;-81
2021/01/05 00:11:13;;;;;;;11.30;3.25;;;3.50;99.90;;;;;;4829400;29;20029;-78
2021/01/05 00:13:38;;;;;;;6.13;3.28;;;3.50;99.90;;;;;;4846014;29;20391;-77
2021/01/05 00:16:04;;;;;;;3.47;3.00;;;3.50;99.90;;;;;;4846648;29;20033;-78
2021/01/05 00:18:30;;;;;;;4.35;3.20;;;3.60;99.90;;;;;;4832650;29;20061;-78
2021/01/05 00:20:56;;;;;;;7.20;2.85;;;3.60;99.90;;;;;;4839811;29;20030;-79
2021/01/05 00:23:21;;;;;;;3.10;2.60;;;3.60;99.90;;;;;;4838820;29;20053;-78
2021/01/05 00:25:47;;;;;;;3.70;2.65;;;3.60;99.90;;;;;;4863343;29;20137;-79
2021/01/05 00:28:16;;;;;;;5.00;3.38;;;3.70;99.90;;;;;;4852218;29;20046;-80
2021/01/05 00:30:48;;;;;;;3.30;2.65;;;3.60;99.90;;;;;;4858007;29;20025;-79
2021/01/05 00:33:13;;;;;;;5.38;3.50;;;3.60;99.90;;;;;;4854429;29;20037;-79
2021/01/05 00:35:39;;;;;;;3.60;3.20;;;3.60;99.90;;;;;;4868352;29;20021;-79
2021/01/05 00:38:07;;;;;;;3.50;2.85;;;3.50;99.90;;;;;;4866588;29;20037;-80
2021/01/05 00:40:35;;;;;;;4.03;3.17;;;3.60;99.90;;;;;;4848967;29;20030;-78
2021/01/05 00:43:01;;;;;;;;;;;3.60;99.90;;;;;;4844410;29;20022;-80
2021/01/05 00:45:37;;;;;;;4.00;3.00;;;3.70;99.90;;;;;;4826415;29;20019;-78
2021/01/05 00:48:05;;;;;;;4.25;3.00;;;3.70;99.90;;;;;;4842213;29;20412;-80
2021/01/05 00:50:31;;;;;;;2.60;2.25;;;3.60;99.90;;;;;;4827988;29;20041;-79
2021/01/05 00:52:56;;;;;;;4.88;3.03;;;3.50;99.90;;;;;;4829428;29;20030;-80
2021/01/05 00:55:22;;;;;;;4.28;3.40;;;3.60;99.90;;;;;;4845058;29;20121;-79
2021/01/05 00:57:48;;;;;;;3.95;3.45;;;3.60;99.90;;;;;;4844537;29;20050;-79
2021/01/05 01:00:18;;;;;;;3.88;3.05;;;3.50;99.90;;;;;;4834330;29;20022;-79
2021/01/05 01:02:46;;;;;;;6.43;3.17;;;3.40;99.90;;;;;;4832501;29;20157;-81
2021/01/05 01:05:12;;;;;;;7.13;3.22;;;3.40;99.90;;;;;;4845308;29;20050;-78
2021/01/05 01:07:38;;;;;;;7.85;3.58;;;3.40;99.90;;;;;;4831778;29;20453;-78
2021/01/05 01:10:05;;;;;;;5.80;3.47;;;3.40;99.90;;;;;;4837028;29;20057;-79
2021/01/05 01:12:31;;;;;;;5.30;3.78;;;3.40;99.90;;;;;;4829508;29;20038;-78
2021/01/05 01:14:56;;;;;;;3.78;2.85;;;3.50;99.90;;;;;;4833419;29;20045;-79
2021/01/05 01:17:24;;;;;;;5.65;3.03;;;3.60;99.90;;;;;;4833890;29;20114;-78
2021/01/05 01:19:50;;;;;;;4.65;3.05;;;3.60;99.90;;;;;;4832004;29;20026;-80
2021/01/05 01:22:21;;;;;;;4.75;3.00;;;3.60;99.90;;;;;;4828922;29;20388;-79
2021/01/05 01:24:47;;;;;;;5.55;3.65;;;3.50;99.90;;;;;;4834599;29;20260;-78
2021/01/05 01:27:13;;;;;;;4.32;2.85;;;3.50;99.90;;;;;;4843720;29;20033;-78
2021/01/05 01:29:39;;;;;;;3.83;3.08;;;3.40;99.90;;;;;;4832675;29;20501;-79
2021/01/05 01:32:05;;;;;;;3.38;2.95;;;3.50;99.90;;;;;;4837477;29;20034;-78
2021/01/05 01:34:30;;;;;;;3.35;3.05;;;3.50;99.90;;;;;;4845425;29;20026;-79
2021/01/05 01:37:00;;;;;;;3.50;2.80;;;3.50;99.90;;;;;;4836437;29;20167;-79
2021/01/05 01:39:28;;;;;;;4.35;3.40;;;3.50;99.90;;;;;;4845325;29;20432;-79
2021/01/05 01:41:54;;;;;;;4.47;3.13;;;3.50;99.90;;;;;;4844325;29;20026;-80
2021/01/05 01:44:24;;;;;;;4.32;3.08;;;3.60;99.90;;;;;;4834871;29;20053;-80
2021/01/05 01:46:56;;;;;;;3.72;3.33;;;3.50;99.90;;;;;;4845046;29;20026;-79
2021/01/05 01:49:23;;;;;;;3.42;2.88;;;3.60;99.90;;;;;;4829193;29;20032;-79
2021/01/05 01:51:51;;;;;;;4.47;3.10;;;3.50;99.90;;;;;;4833418;29;20034;-79
2021/01/05 01:54:42;;;;;;;4.82;3.25;;;3.40;99.90;;;;;;4849856;29;20030;-78
2021/01/05 01:57:46;;;;;;;4.55;3.42;;;3.30;99.90;;;;;;4856567;29;20101;-79
2021/01/05 02:00:22;;;;;;;6.00;3.60;;;3.30;99.90;;;;;;4860220;29;20018;-80
2021/01/05 02:03:16;;;;;;;5.70;3.75;;;3.20;99.90;;;;;;4858347;29;20053;-79
2021/01/05 02:06:06;;;;;;;4.80;3.55;;;3.30;99.90;;;;;;4824217;29;20074;-80
2021/01/05 02:08:43;;;;;;;5.65;3.97;;;3.40;99.90;;;;;;4840343;29;20045;-79
2021/01/05 02:11:21;;;;;;;9.20;4.10;;;3.30;99.90;;;;;;4829547;29;20073;-78
2021/01/05 02:13:46;;;;;;;6.50;4.00;;;3.40;99.90;;;;;;4846513;29;20026;-80
2021/01/05 02:16:26;;;;;;;5.85;4.10;;;3.30;99.90;;;;;;4847986;29;20279;-79
2021/01/05 02:19:08;;;;;;;6.50;3.90;;;3.30;99.90;;;;;;4853670;29;20037;-79
2021/01/05 02:22:18;;;;;;;5.90;4.47;;;3.30;99.90;;;;;;4844351;29;20038;-78
2021/01/05 02:25:01;;;;;;;5.85;4.60;;;3.20;99.90;;;;;;4849353;29;20391;-79
2021/01/05 02:27:27;;;;;;;9.60;4.55;;;3.20;99.90;;;;;;4828908;29;20038;-79
2021/01/05 02:30:00;;;;;;;5.28;3.88;;;3.10;99.90;;;;;;4837011;29;20037;-80
2021/01/05 02:32:49;;;;;;;5.82;4.20;;;3.10;99.90;;;;;;4810532;29;20487;-78
2021/01/05 02:35:47;;;;;;;5.63;4.07;;;3.10;99.90;;;;;;4845526;29;20040;-79
2021/01/05 02:38:34;;;;;;;5.13;3.95;;;3.30;99.90;;;;;;4813957;29;20048;-79
2021/01/05 02:41:16;;;;;;;5.72;4.22;;;3.40;99.90;;;;;;4828354;29;20494;-80
2021/01/05 02:44:04;;;;;;;4.85;3.80;;;3.40;99.90;;;;;;4829181;29;20048;-80
2021/01/05 02:46:55;;;;;;;4.70;3.65;;;3.40;99.90;;;;;;4844342;29;20336;-80
2021/01/05 02:49:40;;;;;;;8.30;5.25;;;3.50;99.90;;;;;;4827229;29;20094;-78
2021/01/05 02:52:45;;;;;;;5.70;4.03;;;3.50;99.90;;;;;;4842905;29;20479;-78
2021/01/05 02:55:48;;;;;;;5.10;3.75;;;3.30;99.90;;;;;;4834933;29;20471;-79
2021/01/05 02:58:17;;;;;;;6.90;4.43;;;3.40;99.90;;;;;;4847542;29;20041;-79
2021/01/05 03:00:54;;;;;;;8.38;4.28;;;3.40;99.90;;;;;;4831126;29;20026;-79
2021/01/05 03:03:44;;;;;;;6.90;4.22;;;3.40;99.90;;;;;;4826352;29;20026;-78
2021/01/05 03:06:48;;;;;;;7.32;4.18;;;3.40;99.90;;;;;;4832529;29;20038;-79
2021/01/05 03:09:35;;;;;;;7.25;4.00;;;3.40;99.90;;;;;;4827303;29;20034;-79
2021/01/05 03:12:23;;;;;;;6.38;4.13;;;3.40;99.90;;;;;;4832097;29;20033;-80
2021/01/05 03:14:57;;;;;;;6.47;4.38;;;3.40;99.90;;;;;;4839747;29;20037;-78
2021/01/05 03:17:50;;;;;;;5.80;3.53;;;3.40;99.90;;;;;;4827682;29;20144;-79
2021/01/05 03:20:38;;;;;;;5.75;4.10;;;3.40;99.90;;;;;;4829835;29;20390;-78
2021/01/05 03:23:11;;;;;;;6.47;3.78;;;3.30;99.90;;;;;;4833177;29;20010;-80
2021/01/05 03:25:40;;;;;;;6.30;3.95;;;3.40;99.90;;;;;;4847746;29;20090;-79
2021/01/05 03:28:08;;;;;;;5.20;4.05;;;3.50;99.90;;;;;;4864593;29;20125;-77
2021/01/05 03:30:47;;;;;;;6.30;4.00;;;3.50;99.90;;;;;;4866089;29;20010;-79
2021/01/05 03:33:13;;;;;;;4.18;3.33;;;3.50;99.90;;;;;;4864563;29;20026;-80
2021/01/05 03:35:39;;;;;;;6.72;4.30;;;3.40;99.90;;;;;;4852362;29;20104;-80
2021/01/05 03:38:05;;;;;;;5.55;3.78;;;3.40;99.90;;;;;;4849786;29;20062;-79
2021/01/05 03:40:30;;;;;;;5.38;3.88;;;3.40;99.90;;;;;;4829696;29;20034;-78
2021/01/05 03:42:57;;;;;;;8.43;4.30;;;3.40;99.90;;;;;;4841128;29;20049;-78
2021/01/05 03:45:28;;;;;;;6.68;4.03;;;3.40;99.90;;;;;;4828961;29;20125;-77
2021/01/05 03:47:54;;;;;;;5.60;3.72;;;3.50;99.90;;;;;;4847914;29;20034;-77
2021/01/05 03:50:21;;;;;;;4.85;3.58;;;3.40;99.90;;;;;;4848493;29;20029;-77
2021/01/05 03:52:46;;;;;;;5.03;4.00;;;3.50;99.90;;;;;;4847087;29;20030;-78
2021/01/05 03:55:14;;;;;;;4.20;3.70;;;3.40;99.90;;;;;;4826675;29;20048;-78
2021/01/05 03:57:40;;;;;;;6.90;3.95;;;3.40;99.90;;;;;;4842940;29;20471;-78
2021/01/05 04:00:13;;;;;;;6.25;3.80;;;3.40;99.90;;;;;;4826835;29;20117;-78
2021/01/05 04:02:39;;;;;;;5.38;3.63;;;3.50;99.90;;;;;;4842908;29;20416;-78
2021/01/05 04:05:05;;;;;;;7.32;4.43;;;3.40;99.90;;;;;;4828742;29;20042;-78
2021/01/05 04:07:30;;;;;;;6.30;4.47;;;3.30;99.90;;;;;;4843063;29;20034;-78
2021/01/05 04:09:56;;;;;;;6.65;4.22;;;3.30;99.90;;;;;;4829255;29;20045;-78
2021/01/05 04:12:22;;;;;;;5.68;4.05;;;3.30;99.90;;;;;;4843223;29;20030;-78
2021/01/05 04:14:47;;;;;;;7.05;4.05;;;3.30;99.90;;;;;;4833204;29;20076;-77
2021/01/05 04:17:13;;;;;;;8.65;4.57;;;3.30;99.90;;;;;;4837550;29;20036;-78
2021/01/05 04:19:39;;;;;;;6.25;4.38;;;3.40;99.90;;;;;;4843178;29;20030;-79
2021/01/05 04:22:05;;;;;;;6.10;4.07;;;3.40;99.90;;;;;;4825812;29;20036;-78
2021/01/05 04:24:30;;;;;;;5.60;4.05;;;3.40;99.90;;;;;;4828928;29;20103;-78
2021/01/05 04:26:56;;;;;;;5.80;4.05;;;3.50;99.90;;;;;;4835466;29;20038;-78
2021/01/05 04:29:21;;;;;;;5.20;4.32;;;3.60;99.90;;;;;;4843187;29;20460;-78
2021/01/05 04:31:47;;;;;;;6.88;4.10;;;3.50;99.90;;;;;;4844158;29;20033;-78
2021/01/05 04:34:15;;;;;;;5.45;3.80;;;3.50;99.90;;;;;;4844341;29;20037;-78
2021/01/05 04:36:40;;;;;;;6.65;4.47;;;3.50;99.90;;;;;;4848010;29;20041;-78
2021/01/05 04:39:07;;;;;;;9.32;4.60;;;3.40;99.90;;;;;;4849302;29;20038;-78
2021/01/05 04:42:03;;;;;;;6.00;4.15;;;3.40;99.90;;;;;;4825900;29;20034;-78
2021/01/05 04:44:33;;;;;;;10.95;4.50;;;3.40;99.90;;;;;;4826136;29;20026;-78
2021/01/05 04:47:29;;;;;;;6.13;3.70;;;3.40;99.90;;;;;;4841933;29;20038;-78
2021/01/05 04:50:22;;;;;;;5.40;4.30;;;3.50;99.90;;;;;;4847175;29;20105;-78
2021/01/05 04:53:13;;;;;;;6.07;4.35;;;3.50;99.90;;;;;;4852098;29;20066;-78
2021/01/05 04:56:04;;;;;;;5.97;3.63;;;3.40;99.90;;;;;;4866724;29;20022;-81
2021/01/05 04:58:55;;;;;;;6.50;4.07;;;3.40;99.90;;;;;;4868066;29;20025;-81
2021/01/05 05:01:26;;;;;;;5.30;4.30;;;3.40;99.90;;;;;;4878416;29;20033;-78
2021/01/05 05:04:24;;;;;;;5.90;4.20;;;3.40;99.90;;;;;;4850197;29;20034;-79
2021/01/05 05:06:56;;;;;;;6.15;3.92;;;3.40;99.90;;;;;;4832886;29;20054;-80
2021/01/05 05:09:59;;;;;;;7.72;4.00;;;3.30;99.90;;;;;;4809101;29;20023;-79
2021/01/05 05:13:12;;;;;;;7.70;4.28;;;3.40;99.90;;;;;;4808477;29;20057;-79
2021/01/05 05:15:47;;;;;;;6.78;4.20;;;3.50;99.90;;;;;;4783015;30;20055;-79
2021/01/05 05:18:21;;;;;;;7.88;4.60;;;3.50;99.90;;;;;;4810709;29;20456;-77
2021/01/05 05:21:08;;;;;;;7.00;3.97;;;3.50;99.90;;;;;;4810097;29;20049;-78
2021/01/05 05:23:56;;;;;;;8.52;4.72;;;3.60;99.90;;;;;;4816358;29;20042;-80
2021/01/05 05:26:41;;;;;;;9.88;5.10;;;3.50;99.90;;;;;;4796520;29;20026;-79
2021/01/05 05:29:25;;;;;;;10.40;4.72;;;3.70;99.90;;;;;;4822904;29;20097;-79
2021/01/05 05:31:51;;;;;;;8.68;4.95;;;3.70;99.90;;;;;;4807566;29;20091;-79
2021/01/05 05:34:27;;;;;;;7.22;4.85;;;3.70;99.90;;;;;;4815891;29;20035;-77
2021/01/05 05:37:25;;;;;;;5.97;3.83;;;3.60;99.90;;;;;;4811912;29;20393;-78
2021/01/05 05:40:01;;;;;;;8.38;4.18;;;3.60;99.90;;;;;;4810830;29;20409;-79
2021/01/05 05:42:44;;;;;;;12.18;4.70;;;3.50;99.90;;;;;;4805629;29;20031;-79
2021/01/05 05:45:47;;;;;;;11.13;4.95;;;3.40;99.90;;;;;;4805884;29;20039;-79
2021/01/05 05:48:18;;;;;;;8.82;4.57;;;3.50;99.90;;;;;;4753772;30;20041;-78
2021/01/05 05:50:58;;;;;;;9.48;4.47;;;3.50;99.90;;;;;;4795001;29;20039;-79
2021/01/05 05:53:27;;;;;;;10.25;5.60;;;3.60;99.90;;;;;;4803313;29;20034;-79
2021/01/05 05:56:02;;;;;;;12.73;5.15;;;3.40;99.90;;;;;;4805847;29;20085;-80
2021/01/05 05:58:33;;;;;;;11.80;6.00;;;3.50;99.90;;;;;;4791977;29;20070;-79
2021/01/05 06:01:03;;;;;;;9.70;4.75;;;3.50;99.90;;;;;;4816599;29;20042;-78
2021/01/05 06:03:29;;;;;;;9.73;5.20;;;3.50;99.90;;;;;;4821916;29;20095;-79
2021/01/05 06:05:55;;;;;;;11.80;5.65;;;3.60;99.90;;;;;;4834952;29;20156;-79
2021/01/05 06:08:22;;;;;;;10.85;5.32;;;3.60;99.90;;;;;;4827138;29;20518;-79
2021/01/05 06:10:49;;;;;;;13.80;6.38;;;3.60;99.90;;;;;;4857706;29;20070;-79
2021/01/05 06:13:15;;;;;;;16.38;6.13;;;3.60;99.90;;;;;;4826400;29;20398;-78
2021/01/05 06:15:41;;;;;;;10.82;5.20;;;3.60;99.90;;;;;;4841829;29;20450;-80
2021/01/05 06:18:09;;;;;;;17.48;6.57;;;3.70;99.90;;;;;;4837712;29;20038;-80
2021/01/05 06:20:38;;;;;;;11.15;5.40;;;3.80;99.90;;;;;;4839415;29;20092;-80
2021/01/05 06:23:04;;;;;;;12.68;5.90;;;3.80;99.90;;;;;;4849434;29;20033;-79
2021/01/05 06:25:30;;;;;;;11.40;5.63;;;3.70;99.90;;;;;;4847513;29;20046;-79
2021/01/05 06:27:55;;;;;;;11.23;5.90;;;3.70;99.90;;;;;;4853754;29;20053;-79
2021/01/05 06:30:24;;;;;;;13.30;6.50;;;3.70;99.90;;;;;;4866521;29;20022;-79
2021/01/05 06:32:49;;;;;;;;;;;3.60;99.90;;;;;;4863581;29;20037;-79
2021/01/05 06:35:17;;;;;;;10.80;5.15;;;3.60;99.90;;;;;;4876024;29;19916;-77
2021/01/05 06:37:43;;;;;;;11.93;6.18;;;3.60;99.90;;;;;;4840737;29;20542;-79
2021/01/05 06:40:11;;;;;;;12.50;6.45;;;3.60;99.90;;;;;;4829820;29;20076;-79
2021/01/05 06:42:37;;;;;;;13.88;5.85;;;3.70;99.90;;;;;;4829745;29;20038;-78
2021/01/05 06:45:06;;;;;;;13.75;6.47;;;3.80;99.90;;;;;;4844765;29;20074;-79
2021/01/05 06:47:32;;;;;;;13.70;6.72;;;3.70;99.90;;;;;;4844412;29;20030;-79
2021/01/05 06:49:58;;;;;;;12.55;6.22;;;3.70;99.90;;;;;;4827783;29;20029;-79
2021/01/05 06:52:24;;;;;;;12.25;6.38;;;3.70;99.90;;;;;;4838132;29;20025;-77
2021/01/05 06:54:52;;;;;;;13.13;7.07;;;3.80;99.90;;;;;;4823078;29;20423;-79
2021/01/05 06:57:18;;;;;;;10.63;6.43;;;3.70;99.90;;;;;;4818554;29;20581;-78
2021/01/05 06:59:44;;;;;;;10.15;5.82;;;3.70;99.90;;;;;;4824086;29;20287;-78
2021/01/05 07:02:09;;;;;;;15.68;7.00;;;3.80;99.90;;;;;;4821251;29;20030;-77
2021/01/05 07:04:37;;;;;;;12.95;6.20;;;3.70;99.90;;;;;;4806171;29;20057;-79
2021/01/05 07:07:03;;;;;;;10.83;5.97;;;3.80;99.90;;;;;;4803105;29;20104;-78
2021/01/05 07:09:30;;;;;;;12.95;6.38;;;3.80;99.90;;;;;;4819564;29;20035;-77
2021/01/05 07:11:56;;;;;;;11.18;5.95;;;3.80;99.90;;;;;;4799435;29;20487;-79
2021/01/05 07:14:24;;;;;;;11.75;6.90;;;3.80;99.90;;;;;;4824949;29;20047;-78
2021/01/05 07:16:51;;;;;;;15.00;6.43;;;3.70;99.90;;;;;;4827417;29;20027;-78
2021/01/05 07:19:17;;;;;;;9.98;5.53;;;3.60;99.90;;;;;;4823417;29;20046;-79
2021/01/05 07:21:44;;;;;;;14.77;7.22;;;3.70;99.90;;;;;;4829791;29;20082;-78
2021/01/05 07:24:10;;;;;;;16.70;7.18;;;3.70;99.90;;;;;;4813803;29;20065;-79
2021/01/05 07:26:39;;;;;;;12.68;6.88;;;3.70;99.90;;;;;;4839868;29;20050;-80
2021/01/05 07:29:05;;;;;;;13.80;6.93;;;3.70;99.90;;;;;;4841034;29;20022;-78
2021/01/05 07:31:31;;;;;;;12.13;6.90;;;3.70;99.90;;;;;;4842176;29;20124;-79
2021/01/05 07:33:56;;;;;;;14.98;7.10;;;3.50;99.90;;;;;;4828747;29;20106;-79
2021/01/05 07:36:27;;;;;;;10.77;6.30;;;3.50;99.90;;;;;;4842467;29;20487;-79
2021/01/05 07:38:53;;;;;;;16.40;7.22;;;3.50;99.90;;;;;;4831047;29;20030;-78
2021/01/05 07:41:19;;;;;;;12.05;6.95;;;3.60;99.90;;;;;;4841615;29;20041;-80
2021/01/05 07:43:46;;;;;;;14.98;7.63;;;3.60;99.90;;;;;;4833130;29;20018;-79
2021/01/05 07:46:12;;;;;;;14.70;6.85;;;3.50;99.90;;;;;;4827181;29;20076;-79
2021/01/05 07:48:39;;;;;;;14.23;6.97;;;3.50;99.90;;;;;;4827283;29;20030;-79
2021/01/05 07:51:07;;;;;;;16.10;7.72;;;3.50;99.90;;;;;;4842579;29;20030;-79
2021/01/05 07:53:32;;;;;;;16.07;8.67;;;3.40;99.90;;;;;;4831779;29;20041;-79
2021/01/05 07:55:58;;;;;;;16.13;6.85;;;3.50;99.90;;;;;;4849948;29;20038;-79
2021/01/05 07:58:25;;;;;;;14.25;7.55;;;3.50;99.90;;;;;;4864046;29;20045;-79
2021/01/05 08:00:50;;;;;;;15.35;7.47;;;3.60;99.90;;;;;;4868668;29;20069;-77
2021/01/05 08:03:16;;;;;;;11.52;6.15;;;3.60;99.90;;;;;;4851936;29;20045;-79
2021/01/05 08:05:41;;;;;;;12.38;6.90;;;3.70;99.90;;;;;;4841035;29;20400;-79
2021/01/05 08:08:07;;;;;;;10.55;6.07;;;3.70;99.90;;;;;;4836399;29;20050;-78
2021/01/05 08:10:36;;;;;;;14.27;6.90;;;3.70;99.90;;;;;;4824073;29;20030;-79
2021/01/05 08:13:05;;;;;;;12.73;6.50;;;3.60;99.90;;;;;;4841027;29;20037;-76
2021/01/05 08:15:31;;;;;;;16.20;7.20;;;3.60;99.90;;;;;;4830874;29;20033;-75
2021/01/05 08:17:58;;;;;;;12.10;7.22;;;3.60;99.90;;;;;;4845190;29;20034;-75
2021/01/05 08:20:27;;;;;;;13.25;7.30;;;3.60;99.90;;;;;;4851241;29;20030;-77
2021/01/05 08:22:53;;;;;;;15.88;7.45;;;3.70;99.90;;;;;;4821585;29;20038;-76
2021/01/05 08:25:22;;;;;;;10.82;6.82;;;3.70;99.90;;;;;;4845101;29;20402;-76
2021/01/05 08:27:50;;;;;;;13.40;6.55;;;3.70;99.90;;;;;;4839098;29;20771;-75
2021/01/05 08:30:23;;;;;;;12.13;6.07;;;3.70;99.90;;;;;;4843343;29;20151;-75
2021/01/05 08:32:50;;;;;;;12.90;6.80;;;3.80;99.90;;;;;;4845424;29;20030;-75
2021/01/05 08:35:18;;;;;;;14.27;6.78;;;3.90;99.90;;;;;;4828579;29;20030;-75
2021/01/05 08:37:43;;;;;;;15.15;6.57;;;4.00;99.90;;;;;;4845305;29;20061;-75
2021/01/05 08:40:17;;;;;;;16.92;7.40;;;3.90;99.90;;;;;;4845406;29;20442;-76
2021/01/05 08:42:43;;;;;;;13.25;6.93;;;3.90;99.90;;;;;;4828888;29;20038;-74
2021/01/05 08:45:09;;;;;;;12.32;6.15;;;3.90;99.90;;;;;;4814719;29;20027;-75
2021/01/05 08:47:35;;;;;;;10.68;6.43;;;4.00;99.90;;;;;;4827147;29;20029;-78
2021/01/05 08:50:02;;;;;;;12.93;6.20;;;4.00;99.90;;;;;;4845028;29;20573;-76
2021/01/05 08:52:28;;;;;;;11.25;6.32;;;4.10;99.90;;;;;;4841641;29;20049;-76
2021/01/05 08:54:53;;;;;;;16.40;7.53;;;4.00;99.90;;;;;;4844707;29;20391;-76
2021/01/05 08:57:19;;;;;;;11.95;6.68;;;4.00;99.90;;;;;;4844962;29;20479;-76
2021/01/05 08:59:49;;;;;;;12.88;7.00;;;4.10;99.90;;;;;;4828670;29;20042;-77
2021/01/05 09:02:15;;;;;;;12.88;6.70;;;4.20;99.90;;;;;;4825362;29;20053;-75
2021/01/05 09:04:41;;;;;;;13.48;7.20;;;4.20;99.90;;;;;;4840345;29;20061;-76
2021/01/05 09:07:07;;;;;;;15.52;7.15;;;4.20;99.90;;;;;;4844625;29;20585;-77
2021/01/05 09:09:34;;;;;;;13.43;6.90;;;4.00;99.90;;;;;;4845889;29;20490;-76
2021/01/05 09:12:00;;;;;;;15.90;7.68;;;4.00;99.90;;;;;;4834544;29;20031;-75
2021/01/05 09:14:26;;;;;;;14.07;7.53;;;4.00;99.90;;;;;;4838580;29;20483;-77
2021/01/05 09:17:01;;;;;;;14.73;7.93;;;4.10;99.90;;;;;;4827947;29;20065;-76
2021/01/05 09:19:28;;;;;;;12.07;6.60;;;4.00;99.90;;;;;;4833838;29;20466;-76
2021/01/05 09:21:55;;;;;;;14.02;6.75;;;4.00;99.90;;;;;;4846136;29;20479;-76
2021/01/05 09:24:21;;;;;;;12.98;7.60;;;4.00;99.90;;;;;;4844546;29;20030;-76
2021/01/05 09:26:56;;;;;;;15.57;7.57;;;4.00;99.90;;;;;;4840647;29;20038;-79
2021/01/05 09:29:24;;;;;;;14.13;7.47;;;3.90;99.90;;;;;;4845657;29;20086;-77
2021/01/05 09:31:51;;;;;;;12.35;7.03;;;4.00;99.90;;;;;;4851296;29;20042;-78
2021/01/05 09:34:20;;;;;;;12.98;7.07;;;4.10;99.90;;;;;;4850127;29;20026;-77
2021/01/05 09:36:46;;;;;;;14.02;6.18;;;4.20;99.90;;;;;;4848274;29;20026;-77
2021/01/05 09:39:14;;;;;;;10.98;6.22;;;4.20;99.90;;;;;;4849738;29;20034;-76
2021/01/05 09:41:41;;;;;;;;;;;4.20;99.90;;;;;;4853013;29;20501;-77
2021/01/05 09:44:11;;;;;;;9.07;5.25;;;4.20;99.90;;;;;;4830304;29;19912;-77
2021/01/05 09:46:39;;;;;;;10.35;5.05;;;4.20;99.90;;;;;;4844198;29;20026;-79
2021/01/05 09:49:13;;;;;;;;;;;4.10;99.90;;;;;;4837588;29;20390;-77
2021/01/05 09:51:39;;;;;;;11.02;5.07;;;4.20;99.90;;;;;;4844387;29;19939;-76
2021/01/05 09:54:06;;;;;;;8.75;5.10;;;4.20;99.90;;;;;;4844570;29;20399;-77
2021/01/05 09:56:32;;;;;;;12.15;5.70;;;4.20;99.90;;;;;;4832096;29;20122;-79
2021/01/05 09:58:58;;;;;;;8.82;4.72;;;4.10;99.90;;;;;;4837179;29;20042;-74
2021/01/05 10:01:26;;;;;;;8.20;4.85;;;4.20;99.90;;;;;;4826753;29;20030;-78
2021/01/05 10:03:53;;;;;;;8.15;3.88;;;4.20;99.90;;;;;;4843389;29;20034;-78
2021/01/05 10:06:19;;;;;;;11.43;5.65;;;4.30;99.90;;;;;;4825030;29;20130;-77
2021/01/05 10:08:46;;;;;;;10.75;5.55;;;4.40;99.90;;;;;;4846150;29;20025;-77
2021/01/05 10:11:12;;;;;;;13.60;5.43;;;4.40;99.90;;;;;;4847980;29;20030;-79
2021/01/05 10:13:38;;;;;;;10.70;5.38;;;4.40;99.90;;;;;;4843969;29;20038;-79
2021/01/05 10:16:04;;;;;;;12.23;5.60;;;4.40;99.90;;;;;;4843709;29;20400;-78
2021/01/05 10:18:31;;;;;;;10.60;5.57;;;4.50;99.90;;;;;;4827037;29;20064;-78
2021/01/05 10:20:57;;;;;;;9.55;5.55;;;4.40;99.90;;;;;;4844608;29;20585;-78
2021/01/05 10:23:23;;;;;;;11.95;5.85;;;4.40;99.90;;;;;;4840256;29;20113;-77
2021/01/05 10:25:49;;;;;;;15.73;6.25;;;4.50;99.90;;;;;;4841461;29;20038;-75
2021/01/05 10:28:15;;;;;;;10.45;5.65;;;4.50;99.90;;;;;;4827175;29;20091;-78
2021/01/05 10:30:41;;;;;;;12.77;6.45;;;4.50;99.90;;;;;;4827234;29;20498;-78
2021/01/05 10:33:07;;;;;;;13.10;5.57;;;4.70;99.90;;;;;;4828977;29;20034;-77
2021/01/05 10:35:33;;;;;;;9.63;5.60;;;4.60;99.90;;;;;;4825757;29;20076;-79
2021/01/05 10:37:58;;;;;;;12.30;6.13;;;4.60;99.90;;;;;;4835466;29;20053;-77
2021/01/05 10:40:25;;;;;;;9.65;5.30;;;4.70;99.90;;;;;;4827042;29;20443;-81
2021/01/05 10:42:51;;;;;;;10.15;5.55;;;4.80;99.90;;;;;;4826328;29;20507;-79
2021/01/05 10:45:21;;;;;;;8.85;5.22;;;4.80;99.90;;;;;;4842740;29;20038;-81
2021/01/05 10:47:48;;;;;;;7.55;4.85;;;4.80;99.90;;;;;;4826971;29;20022;-83
2021/01/05 10:50:16;;;;;;;9.95;5.45;;;4.90;99.90;;;;;;4840363;29;20036;-83
2021/01/05 10:52:43;;;;;;;;;;;4.90;99.90;;;;;;4837518;29;20125;-82
2021/01/05 10:55:10;;;;;;;17.20;6.20;;;4.80;99.90;;;;;;4843980;29;19918;-81
2021/01/05 10:57:35;;;;;;;13.88;5.55;;;4.80;99.90;;;;;;4844682;29;20093;-78
2021/01/05 11:00:01;;;;;;;8.93;5.03;;;4.80;99.90;;;;;;4847544;29;20021;-77
2021/01/05 11:02:27;;;;;;;11.20;5.47;;;4.70;99.90;;;;;;4845658;29;20034;-78
2021/01/05 11:04:52;;;;;;;10.93;5.28;;;4.80;99.90;;;;;;4866210;29;20085;-79
2021/01/05 11:07:18;;;;;;;8.63;5.20;;;4.80;99.90;;;;;;4856861;29;20041;-81
2021/01/05 11:09:45;;;;;;;9.57;5.25;;;4.70;99.90;;;;;;4869307;29;20030;-84
2021/01/05 11:12:18;;;;;;;15.70;5.05;;;4.70;99.90;;;;;;4864739;29;20042;-79
2021/01/05 11:14:44;;;;;;;8.38;4.53;;;4.60;99.90;;;;;;4856246;29;20029;-81
2021/01/05 11:17:10;;;;;;;8.30;4.90;;;4.60;99.90;;;;;;4845968;29;20038;-81
2021/01/05 11:19:36;;;;;;;7.47;4.55;;;4.50;99.90;;;;;;4846946;29;20511;-82
2021/01/05 11:22:05;;;;;;;8.32;4.65;;;4.50;99.90;;;;;;4827911;29;20037;-85
2021/01/05 11:24:36;;;;;;;12.65;5.35;;;4.50;99.90;;;;;;4839949;29;20022;-80
2021/01/05 11:27:05;;;;;;;7.82;4.30;;;4.60;99.90;;;;;;4826943;29;20470;-81
2021/01/05 11:29:33;;;;;;;8.43;4.00;;;4.50;99.90;;;;;;4843874;29;20042;-82
2021/01/05 11:32:00;;;;;;;9.45;4.25;;;4.60;99.90;;;;;;4826312;29;20034;-81
2021/01/05 11:34:26;;;;;;;5.30;3.28;;;4.50;99.90;;;;;;4826501;29;20056;-81
2021/01/05 11:36:52;;;;;;;8.73;4.00;;;4.50;99.90;;;;;;4826866;29;20050;-82
2021/01/05 11:39:19;;;;;;;6.18;4.03;;;4.40;99.90;;;;;;4842285;29;20033;-82
2021/01/05 11:41:45;;;;;;;9.88;4.68;;;4.40;99.90;;;;;;4825957;29;20052;-83
2021/01/05 11:44:15;;;;;;;7.57;3.92;;;4.30;99.90;;;;;;4826391;29;20022;-81
2021/01/05 11:46:41;;;;;;;7.00;3.70;;;4.40;99.90;;;;;;4826402;29;20554;-80
2021/01/05 11:49:07;;;;;;;8.00;4.35;;;4.40;99.90;;;;;;4828679;29;20113;-84
2021/01/05 11:51:36;;;;;;;5.88;3.95;;;4.40;99.90;;;;;;4827498;29;20508;-81
2021/01/05 11:54:02;;;;;;;5.25;2.78;;;4.40;99.90;;;;;;4825890;29;20391;-81
2021/01/05 11:56:31;;;;;;;12.25;4.10;;;4.50;99.90;;;;;;4844213;29;20435;-81
2021/01/05 11:58:58;;;;;;;6.43;3.50;;;4.40;99.90;;;;;;4846387;29;20033;-81
2021/01/05 12:01:24;;;;;;;8.63;4.07;;;4.40;99.90;;;;;;4843581;29;20050;-82
2021/01/05 12:03:50;;;;;;;10.45;4.28;;;4.40;99.90;;;;;;4846210;29;20034;-81
2021/01/05 12:06:19;;;;;;;9.95;4.20;;;4.50;99.90;;;;;;4829869;29;20041;-82
2021/01/05 12:08:46;;;;;;;9.52;4.93;;;4.60;99.90;;;;;;4828897;29;20498;-83
2021/01/05 12:11:19;;;;;;;7.32;4.43;;;4.50;99.90;;;;;;4827172;29;20046;-81
2021/01/05 12:13:46;;;;;;;8.98;4.57;;;4.50;99.90;;;;;;4846235;29;20045;-82
2021/01/05 12:16:12;;;;;;;7.90;4.75;;;4.40;99.90;;;;;;4829649;29;20029;-82
2021/01/05 12:18:38;;;;;;;8.70;4.25;;;4.50;99.90;;;;;;4827325;29;20483;-82
2021/01/05 12:21:06;;;;;;;11.07;4.65;;;4.40;99.90;;;;;;4829756;29;20053;-81
2021/01/05 12:23:32;;;;;;;9.30;4.60;;;4.50;99.90;;;;;;4822374;29;20026;-82
2021/01/05 12:25:58;;;;;;;6.82;3.90;;;4.50;99.90;;;;;;4828821;29;20022;-80
2021/01/05 12:28:23;;;;;;;8.40;4.55;;;4.60;99.90;;;;;;4829058;29;20170;-81
2021/01/05 12:30:49;;;;;;;7.75;4.13;;;4.50;99.90;;;;;;4829395;29;20125;-81
2021/01/05 12:33:15;;;;;;;8.13;4.20;;;4.40;99.90;;;;;;4846946;29;20042;-82
2021/01/05 12:35:42;;;;;;;7.88;4.40;;;4.50;99.90;;;;;;4847875;29;20034;-81
2021/01/05 12:38:09;;;;;;;9.73;5.10;;;4.50;99.90;;;;;;4777834;30;20684;-82
2021/01/05 12:40:34;;;;;;;7.82;4.63;;;4.50;99.90;;;;;;4808826;29;20046;-82
2021/01/05 12:43:00;;;;;;;7.40;4.57;;;4.50;99.90;;;;;;4811803;30;20103;-81
2021/01/05 12:45:26;;;;;;;9.30;4.35;;;4.40;99.90;;;;;;4812031;30;20047;-82
2021/01/05 12:47:53;;;;;;;8.75;4.90;;;4.40;99.90;;;;;;4812620;29;20138;-82
2021/01/05 12:50:18;;;;;;;7.25;3.88;;;4.30;99.90;;;;;;4810880;29;20047;-82
2021/01/05 12:52:47;;;;;;;8.25;4.47;;;4.30;99.90;;;;;;4802814;29;20074;-81
2021/01/05 12:55:17;;;;;;;8.25;3.83;;;4.40;99.90;;;;;;4798886;29;20046;-82
2021/01/05 12:57:44;;;;;;;7.80;4.60;;;4.40;99.90;;;;;;4783740;30;20099;-82
2021/01/05 13:00:12;;;;;;;7.60;4.00;;;4.40;99.90;;;;;;4773164;30;20044;-81
2021/01/05 13:02:38;;;;;;;8.68;4.32;;;4.30;99.90;;;;;;4771918;30;20052;-83
2021/01/05 13:05:06;;;;;;;5.63;3.60;;;4.20;99.90;;;;;;4771166;30;20075;-83
2021/01/05 13:07:32;;;;;;;;;;;4.30;99.90;;;;;;4756271;30;20051;-82
2021/01/05 13:09:58;;;;;;;8.07;3.72;;;4.20;99.90;;;;;;4802477;29;20048;-81
2021/01/05 13:12:25;;;;;;;8.15;4.60;;;4.30;99.90;;;;;;4802838;29;20077;-82